Time;durP1;ratioP1;P1;durP2;ratioP2;P2;SDS_P1;SDS_P2;PMS_P1;PMS_P2;Temp;Humidity;BMP_temperature;BMP_pressure;BME280_temperature;BME280_humidity;BME280_pressure;Samples;Min_cycle;Max_cycle;Signal;HPM_P1;HPM_P2
2022/07/08 00:00:42;;;;;;;9.38;1.90;;;14.40;99.90;;;;;;4992722;28;20046;-62
2022/07/08 00:03:08;;;;;;;9.68;1.75;;;14.40;99.90;;;;;;4982707;28;20054;-62
2022/07/08 00:05:34;;;;;;;11.35;2.13;;;14.40;99.90;;;;;;5015876;28;20053;-62
2022/07/08 00:08:00;;;;;;;8.57;1.63;;;14.40;99.90;;;;;;4996178;28;20049;-61
2022/07/08 00:10:26;;;;;;;9.95;1.90;;;14.40;99.90;;;;;;4978034;28;20049;-62
2022/07/08 00:12:52;;;;;;;14.65;2.10;;;14.40;99.90;;;;;;4995692;28;20503;-62
2022/07/08 00:15:20;;;;;;;9.75;1.88;;;14.40;99.90;;;;;;4974720;28;20045;-62
2022/07/08 00:17:46;;;;;;;6.68;2.22;;;14.40;99.90;;;;;;4989613;28;20054;-62
2022/07/08 00:20:12;;;;;;;9.00;1.67;;;14.50;99.90;;;;;;5014951;28;20590;-62
2022/07/08 00:22:38;;;;;;;12.77;2.10;;;14.40;99.90;;;;;;4998120;28;20046;-62
2022/07/08 00:25:04;;;;;;;8.73;2.10;;;14.50;99.90;;;;;;4994793;28;20045;-61
2022/07/08 00:27:30;;;;;;;10.40;2.60;;;14.50;99.90;;;;;;4994132;28;20048;-63
2022/07/08 00:29:56;;;;;;;10.98;2.20;;;14.50;99.90;;;;;;4976547;28;20069;-63
2022/07/08 00:32:22;;;;;;;8.23;1.73;;;14.50;99.90;;;;;;4995343;28;20618;-62
2022/07/08 00:34:49;;;;;;;9.10;1.77;;;14.40;99.90;;;;;;4998191;28;20056;-61
2022/07/08 00:37:15;;;;;;;12.25;2.35;;;14.50;99.90;;;;;;4998043;28;20081;-61
2022/07/08 00:39:40;;;;;;;9.93;2.00;;;14.40;99.90;;;;;;4991720;28;20575;-62
2022/07/08 00:42:06;;;;;;;16.52;2.63;;;14.40;99.90;;;;;;4991925;28;20574;-61
2022/07/08 00:44:33;;;;;;;15.77;2.35;;;14.40;99.90;;;;;;4993023;28;20041;-61
2022/07/08 00:46:58;;;;;;;9.27;2.35;;;14.40;99.90;;;;;;5008091;28;20484;-63
2022/07/08 00:49:24;;;;;;;11.95;1.92;;;14.40;99.90;;;;;;4991896;28;20140;-63
2022/07/08 00:51:51;;;;;;;9.70;2.03;;;14.40;99.90;;;;;;4994782;28;20041;-62
2022/07/08 00:54:21;;;;;;;6.75;1.70;;;14.30;99.90;;;;;;4986459;28;20131;-61
2022/07/08 00:56:48;;;;;;;8.45;1.80;;;14.30;99.90;;;;;;4995698;28;20514;-63
2022/07/08 00:59:14;;;;;;;12.77;2.22;;;14.40;99.90;;;;;;4980723;28;20053;-62
2022/07/08 01:01:41;;;;;;;10.50;1.60;;;14.30;99.90;;;;;;4995216;28;20057;-63
2022/07/08 01:04:07;;;;;;;10.05;2.00;;;14.30;99.90;;;;;;4994054;28;20444;-62
2022/07/08 01:06:33;;;;;;;15.85;2.25;;;14.30;99.90;;;;;;4996973;28;20045;-62
2022/07/08 01:08:59;;;;;;;7.70;1.90;;;14.20;99.90;;;;;;4993469;28;20070;-63
2022/07/08 01:11:26;;;;;;;11.23;2.53;;;14.30;99.90;;;;;;4992093;28;20160;-62
2022/07/08 01:13:52;;;;;;;12.15;2.03;;;14.30;99.90;;;;;;4995118;28;20062;-63
2022/07/08 01:16:19;;;;;;;14.93;1.88;;;14.20;99.90;;;;;;5010375;28;20049;-61
2022/07/08 01:18:44;;;;;;;7.90;1.70;;;14.20;99.90;;;;;;4981411;28;20405;-61
2022/07/08 01:21:11;;;;;;;7.70;2.13;;;14.20;99.90;;;;;;4989505;28;20153;-62
2022/07/08 01:23:36;;;;;;;13.48;2.35;;;14.20;99.90;;;;;;4995205;28;20149;-61
2022/07/08 01:26:10;;;;;;;8.20;2.10;;;14.20;99.90;;;;;;4991829;28;20052;-62
2022/07/08 01:28:37;;;;;;;9.98;2.58;;;14.10;99.90;;;;;;4996950;28;20049;-61
2022/07/08 01:31:03;;;;;;;10.20;2.00;;;14.10;99.90;;;;;;4997236;28;20050;-63
2022/07/08 01:33:29;;;;;;;6.68;1.90;;;14.10;99.90;;;;;;4983301;28;20054;-62
2022/07/08 01:35:55;;;;;;;9.88;1.90;;;14.00;99.90;;;;;;4999672;28;20399;-63
2022/07/08 01:38:21;;;;;;;7.43;2.17;;;14.00;99.90;;;;;;4995528;28;20045;-61
2022/07/08 01:40:47;;;;;;;17.55;2.35;;;13.90;99.90;;;;;;4991962;28;20468;-61
2022/07/08 01:43:13;;;;;;;6.28;1.80;;;13.90;99.90;;;;;;4977786;28;20057;-61
2022/07/08 01:45:39;;;;;;;14.25;1.90;;;13.80;99.90;;;;;;4997301;28;20095;-61
2022/07/08 01:48:05;;;;;;;11.52;2.13;;;13.80;99.90;;;;;;4981765;28;20045;-61
2022/07/08 01:50:30;;;;;;;12.60;2.28;;;13.70;99.90;;;;;;4992465;28;20042;-62
2022/07/08 01:52:56;;;;;;;8.32;1.92;;;13.70;99.90;;;;;;5000381;28;20045;-63
2022/07/08 01:55:23;;;;;;;12.05;2.40;;;13.70;99.90;;;;;;4977115;28;20060;-62
2022/07/08 01:57:48;;;;;;;8.75;2.00;;;13.60;99.90;;;;;;5001348;28;20056;-61
2022/07/08 02:00:14;;;;;;;6.95;1.77;;;13.60;99.90;;;;;;5007850;28;20101;-61
2022/07/08 02:02:40;;;;;;;8.73;2.20;;;13.50;99.90;;;;;;4996164;28;20065;-62
2022/07/08 02:05:07;;;;;;;10.55;2.10;;;13.50;99.90;;;;;;5000183;28;20488;-61
2022/07/08 02:07:34;;;;;;;13.68;2.80;;;13.40;99.90;;;;;;5003384;28;20045;-62
2022/07/08 02:10:00;;;;;;;7.57;2.10;;;13.40;99.90;;;;;;5001059;28;20129;-62
2022/07/08 02:12:26;;;;;;;9.05;2.42;;;13.30;99.90;;;;;;4997837;28;20458;-63
2022/07/08 02:15:01;;;;;;;4.85;1.67;;;13.30;99.90;;;;;;4978284;28;20511;-62
2022/07/08 02:17:30;;;;;;;10.75;1.90;;;13.30;99.90;;;;;;4986178;28;20175;-61
2022/07/08 02:19:56;;;;;;;6.70;1.75;;;13.20;99.90;;;;;;4999549;28;20069;-63
2022/07/08 02:22:22;;;;;;;7.82;1.80;;;13.20;99.90;;;;;;4997305;28;20108;-62
2022/07/08 02:24:48;;;;;;;7.10;1.98;;;13.20;99.90;;;;;;5001718;28;20045;-62
2022/07/08 02:27:14;;;;;;;9.57;2.15;;;13.10;99.90;;;;;;4997421;28;20096;-61
2022/07/08 02:29:40;;;;;;;9.60;2.35;;;13.10;99.90;;;;;;4976416;28;20089;-62
2022/07/08 02:32:06;;;;;;;9.98;2.03;;;13.10;99.90;;;;;;4997037;28;20152;-62
2022/07/08 02:34:32;;;;;;;9.60;2.10;;;13.00;99.90;;;;;;4959558;28;20046;-61
2022/07/08 02:36:58;;;;;;;13.55;2.42;;;13.00;99.90;;;;;;5014566;28;20264;-63
2022/07/08 02:39:24;;;;;;;13.65;2.50;;;13.00;99.90;;;;;;4999631;28;20064;-63
2022/07/08 02:41:50;;;;;;;13.50;2.58;;;13.00;99.90;;;;;;4997652;28;20108;-62
2022/07/08 02:44:17;;;;;;;17.23;2.15;;;12.90;99.90;;;;;;4979333;28;20060;-62
2022/07/08 02:46:44;;;;;;;13.43;2.50;;;12.90;99.90;;;;;;5001604;28;20049;-63
2022/07/08 02:49:10;;;;;;;14.32;2.83;;;12.80;99.90;;;;;;4998657;28;20046;-61
2022/07/08 02:51:36;;;;;;;11.98;3.00;;;12.80;99.90;;;;;;4991334;28;20044;-62
2022/07/08 02:54:02;;;;;;;9.10;2.38;;;12.80;99.90;;;;;;4981823;28;20042;-62
2022/07/08 02:56:29;;;;;;;12.18;2.25;;;12.80;99.90;;;;;;4998141;28;20057;-63
2022/07/08 02:58:55;;;;;;;10.20;2.72;;;12.80;99.90;;;;;;4998630;28;20053;-61
2022/07/08 03:01:20;;;;;;;9.23;2.33;;;12.80;99.90;;;;;;4995181;28;20049;-62
2022/07/08 03:03:46;;;;;;;9.25;2.35;;;12.80;99.90;;;;;;4976876;28;20049;-62
2022/07/08 03:06:12;;;;;;;13.60;2.63;;;12.80;99.90;;;;;;4980140;28;20073;-61
2022/07/08 03:08:39;;;;;;;7.72;2.17;;;12.80;99.90;;;;;;4996417;28;20041;-62
2022/07/08 03:11:05;;;;;;;11.40;2.47;;;12.70;99.90;;;;;;4987836;28;20041;-61
2022/07/08 03:13:31;;;;;;;10.02;2.60;;;12.70;99.90;;;;;;4998123;28;20050;-62
2022/07/08 03:15:58;;;;;;;7.40;2.35;;;12.70;99.90;;;;;;5001162;28;20046;-61
2022/07/08 03:18:24;;;;;;;10.23;2.70;;;12.70;99.90;;;;;;4994459;28;20671;-62
2022/07/08 03:20:50;;;;;;;11.30;2.80;;;12.70;99.90;;;;;;4959599;28;20514;-62
2022/07/08 03:23:16;;;;;;;15.00;2.78;;;12.70;99.90;;;;;;4997368;28;20046;-62
2022/07/08 03:25:42;;;;;;;11.18;2.70;;;12.60;99.90;;;;;;4972981;28;20068;-62
2022/07/08 03:28:07;;;;;;;10.95;2.20;;;12.60;99.90;;;;;;4981391;28;20051;-62
2022/07/08 03:30:34;;;;;;;6.93;2.33;;;12.60;99.90;;;;;;4977286;28;20052;-61
2022/07/08 03:32:59;;;;;;;10.73;2.92;;;12.60;99.90;;;;;;4995312;28;20400;-63
2022/07/08 03:35:26;;;;;;;9.98;2.50;;;12.50;99.90;;;;;;4979673;28;20445;-63
2022/07/08 03:37:52;;;;;;;15.18;2.30;;;12.50;99.90;;;;;;4977562;28;20050;-62
2022/07/08 03:43:02;;;;;;;7.80;2.20;;;12.50;99.90;;;;;;4999518;28;20512;-62
2022/07/08 03:45:28;;;;;;;7.93;2.38;;;12.50;99.90;;;;;;5009376;28;20038;-61
2022/07/08 03:47:54;;;;;;;12.23;2.95;;;12.50;99.90;;;;;;4996364;28;20052;-63
2022/07/08 03:50:20;;;;;;;12.02;2.65;;;12.50;99.90;;;;;;4997523;28;20042;-61
2022/07/08 03:52:46;;;;;;;6.80;2.63;;;12.60;99.90;;;;;;4996772;28;20049;-62
2022/07/08 03:55:13;;;;;;;9.07;2.47;;;12.50;99.90;;;;;;4998358;28;20049;-62
2022/07/08 03:57:39;;;;;;;9.52;2.40;;;12.60;99.90;;;;;;4982932;28;20060;-61
2022/07/08 04:00:07;;;;;;;12.15;3.13;;;12.50;99.90;;;;;;4964576;28;20496;-61
2022/07/08 04:02:34;;;;;;;9.65;3.05;;;12.60;99.90;;;;;;4979307;28;20049;-62
2022/07/08 04:04:59;;;;;;;11.30;2.70;;;12.50;99.90;;;;;;4977408;28;20037;-63
2022/07/08 04:07:25;;;;;;;9.60;2.80;;;12.50;99.90;;;;;;4993789;28;20057;-62
2022/07/08 04:09:51;;;;;;;11.55;2.67;;;12.50;99.90;;;;;;4991635;28;20499;-61
2022/07/08 04:12:17;;;;;;;9.73;2.63;;;12.50;99.90;;;;;;4998503;28;20042;-61
2022/07/08 04:14:42;;;;;;;8.05;2.47;;;12.50;99.90;;;;;;4979172;28;20050;-61
2022/07/08 04:17:08;;;;;;;12.45;2.75;;;12.50;99.90;;;;;;4996259;28;20049;-62
2022/07/08 04:19:34;;;;;;;8.32;2.60;;;12.50;99.90;;;;;;4994657;28;20377;-61
2022/07/08 04:22:00;;;;;;;8.00;2.80;;;12.60;99.90;;;;;;4991373;28;20536;-62
2022/07/08 04:24:26;;;;;;;11.43;2.88;;;12.60;99.90;;;;;;4980193;28;20045;-62
2022/07/08 04:26:51;;;;;;;12.40;2.58;;;12.70;99.90;;;;;;4992927;28;20130;-63
2022/07/08 04:29:17;;;;;;;9.82;2.50;;;12.80;99.90;;;;;;4989246;28;20045;-63
2022/07/08 04:31:43;;;;;;;13.90;2.90;;;12.80;99.90;;;;;;4976915;28;20053;-63
2022/07/08 04:34:09;;;;;;;13.60;2.95;;;12.90;99.90;;;;;;4997607;28;20135;-61
2022/07/08 04:36:34;;;;;;;11.88;2.60;;;13.00;99.90;;;;;;5008790;28;20575;-63
2022/07/08 04:39:00;;;;;;;10.77;3.17;;;13.10;99.90;;;;;;4998202;28;20108;-61
2022/07/08 04:41:26;;;;;;;18.35;3.50;;;13.20;99.90;;;;;;4977763;28;20058;-63
2022/07/08 04:43:52;;;;;;;16.70;2.90;;;13.20;99.90;;;;;;4998130;28;20108;-61
2022/07/08 04:46:18;;;;;;;11.45;2.60;;;13.30;99.90;;;;;;4999691;28;20053;-62
2022/07/08 04:48:43;;;;;;;15.57;2.97;;;13.30;99.90;;;;;;4990054;28;20048;-61
2022/07/08 04:51:09;;;;;;;16.70;2.80;;;13.40;99.90;;;;;;4974116;28;20045;-61
2022/07/08 04:53:35;;;;;;;13.23;2.75;;;13.50;99.90;;;;;;4995220;28;20478;-62
2022/07/08 04:56:01;;;;;;;9.85;2.70;;;13.50;99.90;;;;;;4995320;28;20064;-61
2022/07/08 04:58:26;;;;;;;14.80;2.90;;;13.60;99.90;;;;;;4992714;28;20053;-63
2022/07/08 05:00:52;;;;;;;12.55;2.53;;;13.70;99.90;;;;;;4991299;28;20139;-61
2022/07/08 05:03:18;;;;;;;14.30;3.03;;;13.70;99.90;;;;;;4992028;28;20056;-61
2022/07/08 05:05:44;;;;;;;9.68;2.42;;;13.80;99.90;;;;;;4994699;28;20962;-61
2022/07/08 05:08:10;;;;;;;12.18;2.28;;;13.80;99.90;;;;;;4997418;28;20048;-61
2022/07/08 05:10:36;;;;;;;13.98;3.00;;;13.90;99.90;;;;;;4981957;28;20484;-62
2022/07/08 05:13:02;;;;;;;10.52;2.40;;;13.90;99.90;;;;;;4993963;28;20072;-61
2022/07/08 05:15:28;;;;;;;13.13;2.65;;;13.90;99.90;;;;;;4976052;28;20046;-63
2022/07/08 05:17:54;;;;;;;14.30;2.75;;;14.00;99.90;;;;;;4993355;28;20404;-63
2022/07/08 05:20:20;;;;;;;11.40;2.88;;;14.00;99.90;;;;;;5010458;28;20046;-63
2022/07/08 05:22:46;;;;;;;17.13;3.10;;;14.10;99.90;;;;;;4992609;28;20102;-61
2022/07/08 05:25:13;;;;;;;13.70;3.05;;;14.10;99.90;;;;;;4979414;28;20046;-63
2022/07/08 05:27:39;;;;;;;12.73;2.95;;;14.20;99.90;;;;;;4989519;28;20103;-61
2022/07/08 05:30:07;;;;;;;12.93;3.00;;;14.20;99.90;;;;;;5000431;28;20120;-62
2022/07/08 05:32:34;;;;;;;19.50;3.22;;;14.30;99.90;;;;;;4876761;28;20041;-62
2022/07/08 05:35:01;;;;;;;9.80;3.28;;;14.40;99.90;;;;;;4971901;28;20065;-61
2022/07/08 05:37:26;;;;;;;13.32;2.63;;;14.50;99.90;;;;;;4985111;28;20550;-62
2022/07/08 05:39:52;;;;;;;12.95;2.80;;;14.60;99.90;;;;;;4988088;28;20053;-63
2022/07/08 05:42:18;;;;;;;13.95;2.80;;;14.70;99.90;;;;;;4983376;28;20092;-61
2022/07/08 05:44:44;;;;;;;10.95;2.60;;;14.80;99.90;;;;;;4997390;28;20042;-62
2022/07/08 05:47:10;;;;;;;13.60;3.15;;;14.90;99.90;;;;;;5008376;28;20064;-63
2022/07/08 05:49:37;;;;;;;15.73;2.50;;;15.00;99.90;;;;;;4995262;28;20050;-62
2022/07/08 05:52:04;;;;;;;15.57;2.65;;;15.10;99.90;;;;;;4992857;28;20048;-61
2022/07/08 05:54:30;;;;;;;12.43;2.75;;;15.20;99.90;;;;;;4986827;28;20910;-61
2022/07/08 05:56:57;;;;;;;11.38;2.53;;;15.20;99.90;;;;;;5010863;28;20045;-61
2022/07/08 05:59:23;;;;;;;9.68;2.88;;;15.40;99.90;;;;;;4974887;28;20046;-62
2022/07/08 06:01:48;;;;;;;9.82;2.58;;;15.40;99.90;;;;;;4989633;28;20065;-63
2022/07/08 06:04:14;;;;;;;19.13;2.70;;;15.50;99.90;;;;;;4969291;28;20077;-61
2022/07/08 06:06:40;;;;;;;11.48;2.83;;;15.60;99.90;;;;;;4978896;28;20050;-61
2022/07/08 06:09:06;;;;;;;15.63;2.72;;;15.70;99.90;;;;;;4998639;28;20156;-61
2022/07/08 06:11:32;;;;;;;14.40;3.42;;;15.80;99.90;;;;;;4969646;28;21040;-60
2022/07/08 06:13:57;;;;;;;15.98;3.25;;;15.90;99.90;;;;;;4997698;28;20046;-60
2022/07/08 06:16:23;;;;;;;15.10;3.35;;;16.00;99.90;;;;;;5015677;28;20046;-62
2022/07/08 06:18:49;;;;;;;11.98;2.80;;;16.00;99.90;;;;;;4998316;28;20112;-61
2022/07/08 06:21:15;;;;;;;9.20;2.22;;;16.10;99.90;;;;;;4999057;28;20073;-61
2022/07/08 06:23:41;;;;;;;13.63;2.75;;;16.10;99.90;;;;;;4997279;28;20129;-60
2022/07/08 06:26:07;;;;;;;13.05;2.92;;;16.20;99.90;;;;;;5004295;28;20116;-61
2022/07/08 06:28:32;;;;;;;16.60;3.20;;;16.20;99.90;;;;;;5001378;28;20188;-61
2022/07/08 06:30:58;;;;;;;12.25;2.60;;;16.30;99.90;;;;;;4980936;28;20053;-60
2022/07/08 06:33:24;;;;;;;15.93;2.80;;;16.30;99.90;;;;;;5000881;28;20073;-62
2022/07/08 06:35:50;;;;;;;15.73;2.95;;;16.40;99.90;;;;;;5002862;28;20058;-61
2022/07/08 06:38:15;;;;;;;13.65;2.60;;;16.50;99.90;;;;;;5001151;28;20156;-61
2022/07/08 06:40:42;;;;;;;14.88;2.65;;;16.50;99.90;;;;;;5002859;28;20482;-60
2022/07/08 06:43:08;;;;;;;12.77;3.15;;;16.50;99.90;;;;;;5002413;28;20050;-60
2022/07/08 06:45:35;;;;;;;11.68;2.38;;;16.60;99.90;;;;;;4983160;28;20041;-60
2022/07/08 06:48:01;;;;;;;18.38;2.40;;;16.70;99.90;;;;;;4995390;28;20472;-61
2022/07/08 06:50:28;;;;;;;10.20;2.47;;;16.70;99.90;;;;;;4997619;28;20046;-62
2022/07/08 06:52:54;;;;;;;16.35;2.40;;;16.80;99.90;;;;;;4999734;28;20050;-60
2022/07/08 06:55:19;;;;;;;10.32;2.42;;;16.80;99.90;;;;;;4997654;28;20507;-60
2022/07/08 06:57:46;;;;;;;13.25;2.42;;;16.90;99.90;;;;;;4982648;28;20472;-61
2022/07/08 07:00:12;;;;;;;10.82;2.35;;;17.00;99.90;;;;;;5001886;28;20050;-60
2022/07/08 07:02:39;;;;;;;8.23;2.35;;;17.10;99.90;;;;;;5002972;28;20148;-60
2022/07/08 07:05:06;;;;;;;8.27;2.10;;;17.20;99.90;;;;;;4995231;28;20049;-60
2022/07/08 07:07:32;;;;;;;7.28;2.33;;;17.30;99.90;;;;;;4999468;28;20042;-60
2022/07/08 07:09:58;;;;;;;8.45;1.90;;;17.40;99.90;;;;;;4994175;28;20485;-62
2022/07/08 07:12:25;;;;;;;8.77;2.33;;;17.50;99.90;;;;;;4977360;28;20512;-60
2022/07/08 07:14:51;;;;;;;7.45;2.08;;;17.50;99.90;;;;;;4991765;28;20034;-62
2022/07/08 07:17:19;;;;;;;10.68;2.25;;;17.60;99.90;;;;;;4983950;28;20038;-60
2022/07/08 07:19:46;;;;;;;6.47;2.03;;;17.70;99.90;;;;;;4984524;28;20546;-61
2022/07/08 07:22:13;;;;;;;10.98;2.10;;;17.80;99.90;;;;;;5004865;28;20396;-60
2022/07/08 07:24:39;;;;;;;11.68;2.13;;;17.90;99.90;;;;;;4982217;28;20152;-61
2022/07/08 07:27:05;;;;;;;10.73;2.45;;;17.90;99.90;;;;;;4993438;28;20200;-62
2022/07/08 07:29:31;;;;;;;7.50;1.90;;;18.00;99.90;;;;;;4976351;28;20045;-60
2022/07/08 07:31:57;;;;;;;10.15;2.40;;;18.00;99.90;;;;;;4995284;28;20180;-61
2022/07/08 07:34:23;;;;;;;7.22;1.70;;;18.00;99.90;;;;;;4993987;28;20074;-62
2022/07/08 07:36:48;;;;;;;10.38;2.20;;;18.10;99.90;;;;;;4993284;28;20854;-60
2022/07/08 07:39:14;;;;;;;9.77;2.00;;;18.10;99.90;;;;;;4991587;28;20558;-61
2022/07/08 07:41:40;;;;;;;10.55;2.50;;;18.20;99.90;;;;;;4999661;28;20049;-60
2022/07/08 07:44:06;;;;;;;7.60;2.03;;;18.20;99.90;;;;;;5009903;28;20077;-61
2022/07/08 07:46:33;;;;;;;11.38;2.47;;;18.30;99.90;;;;;;4987908;28;20050;-62
2022/07/08 07:48:59;;;;;;;12.27;2.60;;;18.30;99.90;;;;;;4986499;28;20511;-62
2022/07/08 07:51:25;;;;;;;11.00;2.30;;;18.40;99.90;;;;;;4991098;28;20152;-62
2022/07/08 07:53:51;;;;;;;14.07;2.00;;;18.40;99.90;;;;;;4979423;28;20061;-62
2022/07/08 07:56:17;;;;;;;12.25;2.20;;;18.40;99.90;;;;;;4978073;28;20053;-61
2022/07/08 07:58:43;;;;;;;7.90;2.38;;;18.50;99.90;;;;;;4984530;28;20056;-61
2022/07/08 08:01:09;;;;;;;8.85;1.70;;;18.50;99.90;;;;;;4986118;28;20045;-62
2022/07/08 08:03:35;;;;;;;16.42;2.83;;;18.50;99.90;;;;;;5001370;28;20121;-61
2022/07/08 08:06:03;;;;;;;9.65;2.22;;;18.60;99.90;;;;;;4991872;28;20042;-62
2022/07/08 08:08:31;;;;;;;8.35;2.25;;;18.60;99.90;;;;;;4989171;28;20046;-61
2022/07/08 08:11:01;;;;;;;10.90;2.45;;;18.60;99.90;;;;;;4979135;28;20571;-62
2022/07/08 08:13:28;;;;;;;7.47;1.95;;;18.60;99.90;;;;;;4979290;28;20762;-62
2022/07/08 08:15:55;;;;;;;8.45;2.17;;;18.60;99.90;;;;;;4990153;28;20049;-61
2022/07/08 08:18:21;;;;;;;9.13;2.00;;;18.60;99.90;;;;;;4987947;28;21025;-63
2022/07/08 08:20:47;;;;;;;15.90;2.50;;;18.60;99.90;;;;;;4987382;28;20503;-62
2022/07/08 08:23:13;;;;;;;6.28;2.20;;;18.60;99.90;;;;;;4989661;28;20038;-62
2022/07/08 08:25:39;;;;;;;7.03;2.10;;;18.60;99.90;;;;;;4986322;28;20068;-62
2022/07/08 08:28:05;;;;;;;5.72;1.75;;;18.60;99.90;;;;;;5000669;28;20056;-62
2022/07/08 08:30:31;;;;;;;7.75;1.92;;;18.60;99.90;;;;;;4950391;28;20057;-62
2022/07/08 08:32:57;;;;;;;8.55;2.20;;;18.60;99.90;;;;;;4968466;28;20085;-60
2022/07/08 08:35:24;;;;;;;9.20;1.92;;;18.60;99.90;;;;;;4988277;28;20139;-62
2022/07/08 08:37:50;;;;;;;7.97;2.00;;;18.60;99.90;;;;;;4994966;28;20063;-62
2022/07/08 08:40:18;;;;;;;8.23;1.92;;;18.60;99.90;;;;;;4995465;28;20053;-62
2022/07/08 08:42:44;;;;;;;9.82;2.20;;;18.70;99.90;;;;;;4974943;28;20180;-62
2022/07/08 08:45:10;;;;;;;8.35;2.15;;;18.70;99.90;;;;;;4998564;28;20057;-62
2022/07/08 08:47:37;;;;;;;7.05;2.22;;;18.70;99.90;;;;;;5014518;28;20038;-61
2022/07/08 08:52:53;;;;;;;6.95;2.17;;;18.70;99.90;;;;;;4996118;28;20057;-62
2022/07/08 08:55:30;;;;;;;7.40;2.17;;;18.80;99.90;;;;;;4993017;28;20104;-60
2022/07/08 08:57:58;;;;;;;13.25;2.90;;;18.80;99.90;;;;;;5000729;28;20048;-62
2022/07/08 09:00:29;;;;;;;7.72;2.40;;;19.00;99.90;;;;;;4991622;28;20069;-61
2022/07/08 09:02:56;;;;;;;7.82;2.10;;;19.10;99.90;;;;;;4989260;28;20049;-63
2022/07/08 09:05:23;;;;;;;6.82;2.00;;;19.20;99.90;;;;;;4983954;28;20061;-62
2022/07/08 09:07:49;;;;;;;10.90;2.45;;;19.30;99.90;;;;;;5006988;28;20041;-61
2022/07/08 09:10:16;;;;;;;7.35;2.10;;;19.40;99.90;;;;;;4990074;28;20056;-62
2022/07/08 09:13:06;;;;;;;10.23;2.03;;;19.40;99.90;;;;;;4986843;28;20061;-62
2022/07/08 09:15:38;;;;;;;11.60;2.00;;;19.60;99.90;;;;;;4979515;28;20515;-61
2022/07/08 09:18:13;;;;;;;8.07;1.75;;;19.70;99.90;;;;;;4986394;28;20081;-61
2022/07/08 09:20:45;;;;;;;10.88;1.90;;;19.70;99.90;;;;;;4987965;28;20482;-61
2022/07/08 09:23:24;;;;;;;7.15;2.10;;;19.70;99.90;;;;;;4987139;28;20048;-60
2022/07/08 09:26:04;;;;;;;9.20;2.13;;;19.70;99.90;;;;;;4991990;28;20050;-61
2022/07/08 09:28:39;;;;;;;7.05;1.95;;;19.80;99.90;;;;;;4987138;28;20070;-62
2022/07/08 09:31:07;;;;;;;7.78;1.90;;;19.80;99.90;;;;;;4985464;28;20825;-62
2022/07/08 09:33:36;;;;;;;5.50;1.77;;;19.80;99.90;;;;;;5000798;28;20124;-60
2022/07/08 09:36:04;;;;;;;10.18;1.88;;;19.80;99.90;;;;;;4986329;28;20069;-61
2022/07/08 09:38:36;;;;;;;10.43;2.20;;;19.80;99.90;;;;;;4987889;28;20044;-62
2022/07/08 09:41:09;;;;;;;8.50;1.90;;;19.90;99.90;;;;;;4984388;28;20057;-62
2022/07/08 09:43:49;;;;;;;10.02;1.70;;;19.90;99.90;;;;;;4954260;28;20600;-62
2022/07/08 09:46:15;;;;;;;5.07;1.75;;;20.00;99.90;;;;;;4984093;28;20053;-61
2022/07/08 09:48:41;;;;;;;8.98;2.30;;;20.10;99.90;;;;;;4986714;28;20050;-62
2022/07/08 09:51:10;;;;;;;9.77;2.35;;;20.20;99.90;;;;;;4995909;28;20050;-61
2022/07/08 09:53:38;;;;;;;8.10;2.13;;;20.20;99.90;;;;;;5004525;28;20389;-60
2022/07/08 09:56:05;;;;;;;5.63;1.77;;;20.30;99.90;;;;;;4968841;28;20078;-61
2022/07/08 09:58:32;;;;;;;7.10;2.10;;;20.40;99.90;;;;;;4974156;28;20149;-61
2022/07/08 10:01:00;;;;;;;7.20;2.28;;;20.40;99.90;;;;;;4999130;28;20132;-62
2022/07/08 10:03:27;;;;;;;10.10;2.20;;;20.50;99.90;;;;;;4989440;28;20420;-62
2022/07/08 10:05:54;;;;;;;7.78;2.25;;;20.60;99.90;;;;;;4987945;28;20050;-62
2022/07/08 10:08:23;;;;;;;9.10;1.95;;;20.70;99.90;;;;;;4986534;28;20057;-61
2022/07/08 10:10:49;;;;;;;7.32;2.05;;;20.80;99.90;;;;;;4990160;28;20049;-62
2022/07/08 10:13:18;;;;;;;8.65;1.70;;;20.80;99.90;;;;;;4992513;28;20060;-61
2022/07/08 10:15:45;;;;;;;7.55;1.80;;;20.90;99.90;;;;;;4967231;28;20116;-62
2022/07/08 10:18:21;;;;;;;6.82;2.00;;;21.00;99.90;;;;;;4971442;28;20054;-61
2022/07/08 10:20:50;;;;;;;11.70;1.88;;;21.00;99.90;;;;;;4995143;28;20058;-60
2022/07/08 10:23:30;;;;;;;9.50;2.15;;;21.00;99.90;;;;;;4986562;28;20432;-62
2022/07/08 10:25:58;;;;;;;9.10;2.13;;;21.10;99.90;;;;;;4988549;28;20041;-61
2022/07/08 10:28:34;;;;;;;9.15;2.20;;;21.00;99.90;;;;;;5001934;28;20471;-62
2022/07/08 10:31:00;;;;;;;10.45;2.17;;;21.00;99.90;;;;;;4994279;28;20077;-63
2022/07/08 10:33:28;;;;;;;6.97;2.22;;;21.10;99.90;;;;;;4994736;28;20046;-62
2022/07/08 10:36:06;;;;;;;11.02;1.95;;;21.20;99.90;;;;;;4971784;28;20400;-62
2022/07/08 10:38:40;;;;;;;9.57;2.05;;;21.30;99.90;;;;;;5001980;28;20503;-61
2022/07/08 10:41:08;;;;;;;8.80;1.83;;;21.40;99.90;;;;;;4986163;28;20058;-61
2022/07/08 10:43:36;;;;;;;17.48;2.05;;;21.50;99.90;;;;;;4989155;28;20095;-62
2022/07/08 10:46:05;;;;;;;8.88;2.30;;;21.50;99.70;;;;;;4991006;28;20472;-61
2022/07/08 10:48:39;;;;;;;9.10;1.80;;;21.60;99.50;;;;;;4996660;28;20067;-62
2022/07/08 10:51:18;;;;;;;8.40;1.88;;;21.60;99.50;;;;;;5003976;28;20089;-63
2022/07/08 10:53:48;;;;;;;5.22;1.63;;;21.60;99.20;;;;;;4993816;28;20054;-62
2022/07/08 10:56:47;;;;;;;5.63;1.85;;;21.60;99.10;;;;;;5013333;28;20050;-61
2022/07/08 10:59:26;;;;;;;9.30;2.35;;;21.50;98.90;;;;;;5000373;28;20104;-62
2022/07/08 11:01:55;;;;;;;7.97;2.00;;;21.70;99.20;;;;;;5017096;28;20052;-62
2022/07/08 11:04:29;;;;;;;8.07;1.98;;;21.80;99.00;;;;;;5000973;28;20092;-62
2022/07/08 11:09:46;;;;;;;8.88;2.10;;;22.10;98.40;;;;;;4999065;28;20049;-61
2022/07/08 11:12:14;;;;;;;6.88;2.13;;;22.20;98.40;;;;;;4999075;28;20073;-62
2022/07/08 11:14:56;;;;;;;5.10;1.88;;;22.40;98.00;;;;;;5000055;28;20392;-62
2022/07/08 11:17:31;;;;;;;8.10;1.98;;;22.60;97.80;;;;;;4997607;28;20068;-61
2022/07/08 11:19:58;;;;;;;8.15;2.30;;;22.70;97.80;;;;;;4960343;28;20888;-62
2022/07/08 11:22:25;;;;;;;7.90;2.47;;;22.80;97.30;;;;;;4972241;28;20054;-62
2022/07/08 11:24:53;;;;;;;8.18;2.25;;;22.90;97.10;;;;;;4990013;28;20120;-62
2022/07/08 11:27:28;;;;;;;7.95;1.90;;;23.30;97.30;;;;;;4988231;28;20743;-62
2022/07/08 11:29:55;;;;;;;4.30;2.05;;;23.60;98.10;;;;;;4969076;28;20107;-62
2022/07/08 11:32:22;;;;;;;8.25;2.65;;;23.90;97.20;;;;;;4979453;28;20042;-62
2022/07/08 11:34:49;;;;;;;5.25;1.73;;;24.20;96.80;;;;;;4973393;28;20065;-62
2022/07/08 11:37:16;;;;;;;8.60;1.90;;;24.30;96.00;;;;;;4982638;28;20657;-61
2022/07/08 11:39:43;;;;;;;8.68;2.40;;;24.40;95.30;;;;;;4992815;28;20052;-61
2022/07/08 11:42:09;;;;;;;9.20;2.40;;;24.40;94.90;;;;;;4980505;28;20060;-63
2022/07/08 11:44:35;;;;;;;8.18;2.35;;;24.50;94.70;;;;;;4999242;28;20072;-63
2022/07/08 11:47:02;;;;;;;5.75;1.90;;;24.50;94.50;;;;;;4986670;28;20806;-62
2022/07/08 11:49:27;;;;;;;8.95;2.08;;;24.40;93.90;;;;;;4985308;28;20050;-62
2022/07/08 11:51:55;;;;;;;6.32;2.28;;;24.30;94.00;;;;;;4970176;28;20512;-63
2022/07/08 11:54:23;;;;;;;5.47;2.20;;;24.40;94.50;;;;;;4995356;28;20046;-62
2022/07/08 11:56:56;;;;;;;12.50;2.70;;;24.40;94.50;;;;;;4988013;28;20169;-61
2022/07/08 11:59:26;;;;;;;9.65;2.40;;;24.50;94.10;;;;;;4998186;28;20504;-62
2022/07/08 12:01:57;;;;;;;10.90;3.00;;;24.70;94.20;;;;;;4995375;28;20084;-62
2022/07/08 12:04:24;;;;;;;12.32;2.35;;;24.70;93.90;;;;;;4985235;28;20045;-62
2022/07/08 12:06:58;;;;;;;9.57;2.50;;;24.60;93.80;;;;;;5008105;28;20058;-63
2022/07/08 12:09:25;;;;;;;10.48;2.47;;;24.50;93.80;;;;;;4990949;28;20064;-62
2022/07/08 12:11:53;;;;;;;10.77;2.40;;;24.40;93.90;;;;;;4987497;28;20044;-62
2022/07/08 12:14:20;;;;;;;7.30;2.83;;;24.30;94.00;;;;;;4991284;28;20100;-62
2022/07/08 12:16:46;;;;;;;9.38;2.70;;;24.10;94.00;;;;;;4990464;28;20055;-61
2022/07/08 12:19:28;;;;;;;10.10;2.22;;;23.90;94.20;;;;;;4989805;28;20053;-62
2022/07/08 12:21:55;;;;;;;8.73;2.60;;;23.90;94.60;;;;;;4992632;28;20041;-61
2022/07/08 12:24:31;;;;;;;8.55;2.92;;;23.80;94.80;;;;;;4975420;28;20050;-61
2022/07/08 12:27:02;;;;;;;9.95;2.75;;;23.80;94.80;;;;;;4988742;28;20088;-61
2022/07/08 12:29:33;;;;;;;6.28;2.13;;;23.90;94.80;;;;;;4989753;28;20052;-64
2022/07/08 12:31:59;;;;;;;9.55;2.33;;;23.80;94.70;;;;;;4990924;28;20061;-63
2022/07/08 12:34:25;;;;;;;6.72;2.08;;;24.00;95.20;;;;;;4992765;28;20042;-66
2022/07/08 12:36:52;;;;;;;10.90;2.50;;;24.10;95.20;;;;;;4992313;28;20103;-66
2022/07/08 12:39:27;;;;;;;8.90;2.30;;;24.30;95.00;;;;;;4972035;28;20137;-66
2022/07/08 12:42:05;;;;;;;10.95;2.20;;;24.40;94.40;;;;;;5000741;28;20152;-66
2022/07/08 12:44:35;;;;;;;7.75;2.35;;;24.60;94.30;;;;;;4970646;28;20130;-63
2022/07/08 12:47:04;;;;;;;9.90;2.38;;;24.80;94.20;;;;;;4993141;28;20214;-63
2022/07/08 12:49:32;;;;;;;6.20;2.05;;;24.80;94.20;;;;;;4988701;28;20042;-65
2022/07/08 12:51:59;;;;;;;8.52;3.05;;;24.90;93.90;;;;;;5008402;28;20399;-63